首页
METAR-TAF:

METAR-TAF

机场 :

索菲亞, 保加利亚

索菲亞機場

纬度: 42-39N, 经度: 023-23E, 海拔: 586米

当前天气观测

该预报发布于19分钟前的22:00 UTC
风速3节,风向,在北转东北东转东南之间变化
温度 14°C
湿度 82%
气压 1016 hPa
能见度10公里或以上
1500米以下无云,无积雨云

METAR: LBSF 252200Z 08003KT 020V120 CAVOK 14/11 Q1016 NOSIG

时间: 01:19 (22:19 UTC)

预报

该预报发布于5小时和19分钟前的17:00 UTC
预报有效从25日的 18点(UTC)到 26日的 18点(UTC)
风速4节,风向多变
能见度10公里或以上
少量云层高于4000英尺
短暂存在
从 26日的 11点(UTC)到 26日的 16点(UTC)
散云层高于3300英尺, 积雨云.
多云层高于4500英尺
雷暴, 雨

TAF: LBSF 251700Z 2518/2618 VRB04KT 9999 FEW040 TEMPO 2611/2616 TSRA SCT033CB BKN045

超过4000个机场的气象观测和天气预报(METAR&TAF报告)。

可查询的气象台以黄色和红色小点在地图上表示。

将鼠标移到小点上方,可查看气象台名称。

然后点击查看天气观测和预报。

如需切换地图:点击带黑十字的绿色按钮放大地图;点击带横线的绿色按钮缩小地图;或者点击绿色箭头查看邻近地区的地图。


METAR-TAF: